LEWISTON (LEW)

Elevation: 1870' · TRINITY R basin · Operator: US Bureau of Reclamation

Provisional data, subject to change.
Query executed Friday at 23:39:43   clock

Select a sensor type for a plot of data.
Note: Reservoir Flows are daily averages.

Earlier

Date RES ELE    STORAGE    RES CHG    OUTFLOW    INFLOW    EVAP    RIV REL    SPILL    DIS PWR   
 FEET   AF   AF   CFS   CFS   CFS   CFS   CFS   CFS  
11/20/2014 1901.40 14210 67 604 638 0 308 153 0
11/21/2014 1901.21 14068 -142 554 482 0 310 155 0
11/22/2014 1901.49 14278 210 323 429 0 309 154 0
11/23/2014 1901.85 14547 269 382 520 2 309 154 0
11/24/2014 1901.20 14061 -486 813 569 1 311 156 0
11/25/2014 1900.99 13904 -157 686 608 1 307 152 0
11/26/2014 1901.10 13986 82 572 613 0 307 152 0
11/27/2014 1901.37 14188 202 321 423 0 307 152 0
11/28/2014 1901.44 14240 52 579 605 0 310 155 0
11/29/2014 1901.53 14307 67 582 616 0 310 155 0
11/30/2014 1901.72 14450 143 324 397 1 310 155 0
12/01/2014 1901.66 14405 -45 345 322 0 312 157 0
12/02/2014 1901.64 14390 -15 326 318 0 312 157 0
12/03/2014 1901.57 14337 -53 326 299 0 312 157 0
12/04/2014 1901.47 14263 -74 355 318 0 309 154 0
12/05/2014 1901.49 14278 15 324 332 0 310 155 0
12/06/2014 1901.50 14285 7 324 329 1 310 155 0
12/07/2014 1901.49 14278 -7 324 321 1 310 155 0
12/08/2014 1901.50 14285 7 324 329 1 310 155 0
12/09/2014 1901.40 14210 -75 578 540 0 311 156 0
12/10/2014 1900.76 13734 -476 325 85 0 311 156 0
12/11/2014 1901.40 14210 476 336 576 0 310 155 0
12/12/2014 1901.21 14068 -142 326 255 1 312 157 0
12/13/2014 1900.48 13528 -540 324 53 1 310 155 0
12/14/2014 1900.69 13683 155 319 398 1 305 150 0
12/15/2014 1901.17 14038 355 322 501 0 308 153 0
12/16/2014 1901.73 14457 419 326 537 0 312 157 0
12/17/2014 1901.07 13963 -494 328 79 0 314 159 0
12/18/2014 1901.38 14195 232 327 444 0 313 158 0
12/19/2014 -- -- -- -- -- -- -- -- --

Later | Latest

Warning! This data is preliminary and subject to revision.

Show LEW Map | Plot LEW Data | 1 Month LEW Data | Real-Time LEW Data | LEW Info